< < Back
Terminal Aerodrome Forecast


Current Version              Previous Versions:   1  2  3  4  5  6  7  8  9  

Terminal Aerodrome Forecast

610
FTUS42 KMLB 281120
TAFMCO
TAF
KMCO 281120Z 2812/2912 21004KT P6SM FEW040 SCT100 BKN250
     FM281500 21005KT P6SM SCT035 BKN250
     FM282000 17007KT P6SM VCTS SCT035CB BKN080
      TEMPO 2820/2823 3SM TSRA BKN030CB OVC050
     FM290000 18005KT P6SM SCT080 BKN120=

Latest METAR

198
SAUS70 KWBC 281500 RRX
MTRMCO
METAR KMCO 281453Z VRB04KT 10SM FEW028 BKN300 29/22 A3003 RMK AO2 SLP166
T02940222 50002


USA.gov is the U.S. government's official web portal to all federal, state and local government web resources and services.